createdAt,value
2022-10-31T00:01:39.410Z,100958.03
2022-10-31T00:04:07.180Z,100959.25
2022-10-31T00:06:34.130Z,100956.13
2022-10-31T00:09:03.694Z,100960.25
2022-10-31T00:11:30.916Z,100954.88
2022-10-31T00:14:00.919Z,100955.16
2022-10-31T00:16:29.168Z,100959.59
2022-10-31T00:18:58.474Z,100957.84
2022-10-31T00:21:25.855Z,100959.41
2022-10-31T00:23:52.846Z,100954.25
2022-10-31T00:26:20.153Z,100953.22
2022-10-31T00:28:47.864Z,100952.91
2022-10-31T00:31:15.355Z,100950.56
2022-10-31T00:33:42.754Z,100947.34
2022-10-31T00:36:14.292Z,100951.56
2022-10-31T00:38:42.551Z,100948.63
2022-10-31T00:41:10.668Z,100947.25
2022-10-31T00:43:41.132Z,100946.63
2022-10-31T00:46:07.988Z,100953.78
2022-10-31T00:48:34.855Z,100947.38
2022-10-31T00:51:01.854Z,100947.31
2022-10-31T00:53:28.752Z,100951.63
2022-10-31T00:55:55.698Z,100953.38
2022-10-31T00:58:23.800Z,100952.50
2022-10-31T01:00:56.211Z,100954.50
2022-10-31T01:03:28.887Z,100962.22
2022-10-31T01:06:15.153Z,100950.75
2022-10-31T01:08:42.065Z,100950.53
2022-10-31T01:11:20.872Z,100952.34
2022-10-31T01:13:48.071Z,100950.13
2022-10-31T01:16:17.808Z,100947.88
2022-10-31T01:18:45.495Z,100947.72
2022-10-31T01:21:18.628Z,100949.09
2022-10-31T01:23:45.769Z,100945.53
2022-10-31T01:26:20.609Z,100948.78
2022-10-31T01:29:08.915Z,100948.56
2022-10-31T01:31:38.518Z,100941.19
2022-10-31T01:34:06.345Z,100947.66
2022-10-31T01:36:38.601Z,100944.22
2022-10-31T01:39:08.223Z,100941.84
2022-10-31T01:41:38.239Z,100936.19
2022-10-31T01:44:25.357Z,100937.88
2022-10-31T01:47:00.354Z,100946.53
2022-10-31T01:49:52.733Z,100947.22
2022-10-31T01:52:30.152Z,100952.22
2022-10-31T01:55:06.100Z,100950.81
2022-10-31T01:57:35.318Z,100956.97
2022-10-31T02:00:07.477Z,100951.97
2022-10-31T02:02:40.378Z,100944.00
2022-10-31T02:05:11.575Z,100947.94
2022-10-31T02:07:44.474Z,100948.94
2022-10-31T02:10:11.435Z,100946.19
2022-10-31T02:12:39.400Z,100943.28
2022-10-31T02:15:07.017Z,100949.88
2022-10-31T02:17:34.778Z,100959.59
2022-10-31T02:20:17.026Z,100959.16
2022-10-31T02:22:56.163Z,100959.47
2022-10-31T02:26:14.575Z,100963.06
2022-10-31T02:29:05.120Z,100964.72
2022-10-31T02:31:49.795Z,100957.59
2022-10-31T02:34:27.211Z,100963.66
2022-10-31T02:37:02.967Z,100969.63
2022-10-31T02:39:49.044Z,100963.78
2022-10-31T02:42:50.020Z,100956.59
2022-10-31T02:45:31.837Z,100963.06
2022-10-31T02:48:04.227Z,100959.09
2022-10-31T02:50:37.322Z,100963.19
2022-10-31T02:53:04.791Z,100963.06
2022-10-31T02:55:31.802Z,100962.97
2022-10-31T02:58:09.925Z,100963.00
2022-10-31T03:00:42.154Z,100977.75
2022-10-31T03:03:24.473Z,100967.72
2022-10-31T03:05:57.575Z,100974.19
2022-10-31T03:08:41.556Z,100981.97
2022-10-31T03:11:10.863Z,100973.78
2022-10-31T03:14:13.867Z,100972.50
2022-10-31T03:16:53.132Z,100975.63
2022-10-31T03:19:34.670Z,100979.09
2022-10-31T03:22:30.864Z,100985.84
2022-10-31T03:25:01.071Z,100990.00
2022-10-31T03:27:32.242Z,100983.16
2022-10-31T03:30:03.209Z,100992.81
2022-10-31T03:32:42.612Z,100991.97
2022-10-31T03:35:11.256Z,100994.16
2022-10-31T03:37:41.680Z,100989.34
2022-10-31T03:40:15.813Z,100996.44
2022-10-31T03:42:47.714Z,101003.28
2022-10-31T03:45:24.748Z,100995.53
2022-10-31T03:47:54.102Z,100997.16
2022-10-31T03:50:22.792Z,100996.41
2022-10-31T03:53:07.301Z,101002.66
2022-10-31T03:55:43.888Z,101004.88
2022-10-31T04:00:51.021Z,101009.25
2022-10-31T04:03:28.801Z,101016.91
2022-10-31T04:06:03.091Z,101021.81
2022-10-31T04:08:34.687Z,101018.34
2022-10-31T04:11:05.962Z,101017.53
2022-10-31T04:13:35.609Z,101013.78
2022-10-31T04:16:12.634Z,101019.56
2022-10-31T04:18:43.037Z,101024.13
2022-10-31T04:21:10.773Z,101028.00
2022-10-31T04:23:37.779Z,101029.50
2022-10-31T04:26:14.487Z,101027.88
2022-10-31T04:28:44.226Z,101032.06
2022-10-31T04:31:13.575Z,101043.84
2022-10-31T04:33:41.434Z,101061.38
2022-10-31T04:36:08.604Z,101057.97
2022-10-31T04:38:36.222Z,101053.38
2022-10-31T04:41:08.890Z,101060.06
2022-10-31T04:43:58.956Z,101060.16
2022-10-31T04:46:27.804Z,101052.19
2022-10-31T04:48:56.881Z,101063.94
2022-10-31T04:51:24.703Z,101063.94
2022-10-31T04:53:52.252Z,101070.56
2022-10-31T04:56:41.937Z,101064.75
2022-10-31T04:59:17.172Z,101073.97
2022-10-31T05:01:50.072Z,101077.56
2022-10-31T05:04:22.250Z,101083.63
2022-10-31T05:06:49.303Z,101075.66
2022-10-31T05:09:16.283Z,101076.16
2022-10-31T05:11:43.878Z,101088.06
2022-10-31T05:14:29.276Z,101087.88
2022-10-31T05:17:16.171Z,101090.41
2022-10-31T05:20:06.312Z,101106.00
2022-10-31T05:23:05.378Z,101108.16
2022-10-31T05:25:33.449Z,101103.78
2022-10-31T05:28:04.661Z,101119.66
2022-10-31T05:30:33.058Z,101133.44
2022-10-31T05:33:01.038Z,101127.34
2022-10-31T05:35:46.782Z,101124.34
2022-10-31T05:38:35.040Z,101137.97
2022-10-31T05:41:11.079Z,101132.50
2022-10-31T05:43:42.576Z,101144.41
2022-10-31T05:46:10.284Z,101138.97
2022-10-31T05:49:06.069Z,101146.75
2022-10-31T05:51:51.598Z,101147.63
2022-10-31T05:54:20.227Z,101141.75
2022-10-31T05:56:47.211Z,101150.94
2022-10-31T05:59:14.162Z,101149.00
2022-10-31T06:01:41.382Z,101152.97
2022-10-31T06:04:22.212Z,101156.28
2022-10-31T06:06:49.237Z,101162.56
2022-10-31T06:09:17.000Z,101153.69
2022-10-31T06:11:45.042Z,101163.81
2022-10-31T06:14:32.125Z,101160.44
2022-10-31T06:16:59.210Z,101161.81
2022-10-31T06:20:01.415Z,101157.25
2022-10-31T06:22:30.568Z,101156.22
2022-10-31T06:24:57.603Z,101160.13
2022-10-31T06:27:34.913Z,101158.72
2022-10-31T06:30:09.485Z,101165.00
2022-10-31T06:32:37.477Z,101163.38
2022-10-31T06:35:04.836Z,101161.19
2022-10-31T06:37:33.773Z,101164.03
2022-10-31T06:40:08.400Z,101174.31
2022-10-31T06:43:01.513Z,101182.44
2022-10-31T06:45:29.747Z,101193.06
2022-10-31T06:48:18.381Z,101196.78
2022-10-31T06:51:04.316Z,101192.00
2022-10-31T06:53:32.390Z,101193.53
2022-10-31T06:56:01.777Z,101201.31
2022-10-31T06:58:30.815Z,101207.13
2022-10-31T07:01:01.495Z,101204.75
2022-10-31T07:03:28.537Z,101199.06
2022-10-31T07:05:58.585Z,101203.09
2022-10-31T07:08:26.258Z,101202.31
2022-10-31T07:10:55.637Z,101201.50
2022-10-31T07:13:26.641Z,101200.63
2022-10-31T07:16:14.930Z,101201.16
2022-10-31T07:18:44.573Z,101195.09
2022-10-31T07:21:13.188Z,101202.53
2022-10-31T07:23:41.810Z,101197.22
2022-10-31T07:26:28.989Z,101202.19
2022-10-31T07:28:56.007Z,101198.56
2022-10-31T07:31:25.567Z,101194.47
2022-10-31T07:33:55.181Z,101190.66
2022-10-31T07:36:28.166Z,101187.09
2022-10-31T07:39:00.101Z,101186.09
2022-10-31T07:41:27.118Z,101189.00
2022-10-31T07:43:54.573Z,101187.25
2022-10-31T07:46:30.313Z,101195.88
2022-10-31T07:49:35.590Z,101199.09
2022-10-31T07:52:21.140Z,101201.81
2022-10-31T07:55:06.763Z,101207.72
2022-10-31T07:57:37.870Z,101209.69
2022-10-31T08:00:07.078Z,101212.25
2022-10-31T08:02:41.839Z,101208.28
2022-10-31T08:05:45.889Z,101214.22
2022-10-31T08:08:38.998Z,101217.09
2022-10-31T08:11:08.184Z,101214.34
2022-10-31T08:13:35.764Z,101211.66
2022-10-31T08:16:05.346Z,101203.91
2022-10-31T08:18:38.666Z,101204.34
2022-10-31T08:21:08.816Z,101208.84
2022-10-31T08:23:35.975Z,101205.22
2022-10-31T08:26:03.502Z,101209.13
2022-10-31T08:28:31.459Z,101205.72
2022-10-31T08:30:59.648Z,101199.19
2022-10-31T08:33:38.284Z,101194.75
2022-10-31T08:36:22.890Z,101191.78
2022-10-31T08:39:09.657Z,101200.34
2022-10-31T08:41:36.647Z,101206.34
2022-10-31T08:44:03.901Z,101206.91
2022-10-31T08:46:32.756Z,101210.53
2022-10-31T08:48:59.794Z,101205.25
2022-10-31T08:51:26.943Z,101209.91
2022-10-31T08:53:55.877Z,101210.41
2022-10-31T08:56:41.220Z,101216.19
2022-10-31T08:59:31.149Z,101207.84
2022-10-31T09:02:18.346Z,101206.09
2022-10-31T09:04:45.323Z,101200.78
2022-10-31T09:07:27.385Z,101202.53
2022-10-31T09:09:56.811Z,101201.13
2022-10-31T09:12:25.091Z,101201.34
2022-10-31T09:15:24.732Z,101194.91
2022-10-31T09:17:57.858Z,101192.66
2022-10-31T09:20:32.327Z,101194.22
2022-10-31T09:23:05.155Z,101191.94
2022-10-31T09:25:35.976Z,101198.16
2022-10-31T09:28:24.592Z,101193.44
2022-10-31T09:30:54.616Z,101196.56
2022-10-31T09:33:43.199Z,101195.81
2022-10-31T09:36:28.496Z,101187.34
2022-10-31T09:38:56.132Z,101183.81
2022-10-31T09:41:35.061Z,101183.13
2022-10-31T09:44:10.780Z,101184.38
2022-10-31T09:46:48.790Z,101178.31
2022-10-31T09:49:42.224Z,101177.41
2022-10-31T09:52:24.515Z,101177.06
2022-10-31T09:54:51.319Z,101170.47
2022-10-31T09:57:25.585Z,101168.56
2022-10-31T09:59:53.061Z,101168.59
2022-10-31T10:02:33.855Z,101170.63
2022-10-31T10:05:05.060Z,101162.72
2022-10-31T10:07:57.912Z,101165.47
2022-10-31T10:10:59.880Z,101157.53
2022-10-31T10:14:24.905Z,101148.88
2022-10-31T10:16:58.892Z,101151.47
2022-10-31T10:19:25.756Z,101153.47
2022-10-31T10:22:09.157Z,101153.13
2022-10-31T10:24:44.997Z,101151.88
2022-10-31T10:27:35.128Z,101152.72
2022-10-31T10:30:18.634Z,101151.06
2022-10-31T10:32:52.199Z,101159.00
2022-10-31T10:35:48.600Z,101143.69
2022-10-31T10:38:49.146Z,101145.19
2022-10-31T10:41:21.901Z,101147.94
2022-10-31T10:43:51.418Z,101134.81
2022-10-31T10:46:43.563Z,101144.22
2022-10-31T10:49:22.316Z,101140.75
2022-10-31T10:52:07.525Z,101144.88
2022-10-31T10:54:58.178Z,101138.97
2022-10-31T10:57:47.753Z,101135.00
2022-10-31T11:00:22.711Z,101138.19
2022-10-31T11:02:50.227Z,101140.75
2022-10-31T11:05:35.534Z,101136.81
2022-10-31T11:08:03.064Z,101136.09
2022-10-31T11:10:30.494Z,101128.03
2022-10-31T11:13:16.863Z,101138.44
2022-10-31T11:16:09.947Z,101136.47
2022-10-31T11:18:43.855Z,101134.03
2022-10-31T11:21:29.422Z,101142.31
2022-10-31T11:24:11.297Z,101138.84
2022-10-31T11:26:40.507Z,101125.25
2022-10-31T11:29:26.043Z,101119.81
2022-10-31T11:31:58.110Z,101111.59
2022-10-31T11:34:36.191Z,101116.94
2022-10-31T11:37:19.411Z,101110.94
2022-10-31T11:39:54.489Z,101114.44
2022-10-31T11:42:28.137Z,101118.31
2022-10-31T11:44:56.861Z,101117.88
2022-10-31T11:47:29.680Z,101116.72
2022-10-31T11:49:58.258Z,101117.97
2022-10-31T11:52:29.692Z,101120.50
2022-10-31T11:55:02.150Z,101112.47
2022-10-31T11:57:34.597Z,101114.84
2022-10-31T12:00:06.964Z,101108.06
2022-10-31T12:02:39.486Z,101115.38
2022-10-31T12:05:19.242Z,101115.28
2022-10-31T12:07:46.261Z,101113.88
2022-10-31T12:10:14.856Z,101107.66
2022-10-31T12:12:50.740Z,101106.47
2022-10-31T12:15:37.820Z,101107.53
2022-10-31T12:18:32.864Z,101104.72
2022-10-31T12:20:59.602Z,101103.88
2022-10-31T12:23:47.438Z,101111.41
2022-10-31T12:26:38.690Z,101101.81
2022-10-31T12:29:23.691Z,101102.56
2022-10-31T12:32:14.916Z,101106.31
2022-10-31T12:35:01.003Z,101112.53
2022-10-31T12:38:14.334Z,101107.91
2022-10-31T12:41:16.730Z,101100.75
2022-10-31T12:44:06.538Z,101109.25
2022-10-31T12:47:11.672Z,101105.28
2022-10-31T12:49:47.548Z,101112.16
2022-10-31T12:52:26.895Z,101108.09
2022-10-31T12:55:04.628Z,101103.88
2022-10-31T12:57:39.371Z,101107.19
2022-10-31T13:00:17.112Z,101109.63
2022-10-31T13:02:49.915Z,101109.25
2022-10-31T13:05:37.722Z,101110.69
2022-10-31T13:08:10.011Z,101118.72
2022-10-31T13:11:15.753Z,101117.13
2022-10-31T13:13:53.150Z,101111.53
2022-10-31T13:16:24.204Z,101109.16
2022-10-31T13:19:00.096Z,101104.75
2022-10-31T13:21:40.605Z,101113.06
2022-10-31T13:24:14.948Z,101112.00
2022-10-31T13:26:44.745Z,101112.22
2022-10-31T13:29:32.593Z,101114.34
2022-10-31T13:32:05.572Z,101107.91
2022-10-31T13:34:43.498Z,101116.34
2022-10-31T13:37:22.488Z,101120.53
2022-10-31T13:40:16.567Z,101115.06
2022-10-31T13:43:20.821Z,101121.31
2022-10-31T13:45:55.529Z,101116.31
2022-10-31T13:48:28.502Z,101128.00
2022-10-31T13:51:05.058Z,101120.13
2022-10-31T13:53:46.999Z,101132.81
2022-10-31T13:56:23.328Z,101131.16
2022-10-31T13:59:05.078Z,101129.09
2022-10-31T14:01:34.227Z,101128.91
2022-10-31T14:04:25.316Z,101122.84
2022-10-31T14:06:52.553Z,101129.16
2022-10-31T14:09:35.265Z,101138.47
2022-10-31T14:12:14.233Z,101130.91
2022-10-31T14:14:49.195Z,101133.03
2022-10-31T14:17:28.680Z,101141.06
2022-10-31T14:20:02.466Z,101135.28
2022-10-31T14:22:37.436Z,101133.50
2022-10-31T14:25:26.181Z,101143.78
2022-10-31T14:27:53.768Z,101140.97
2022-10-31T14:30:26.664Z,101138.19
2022-10-31T14:32:56.450Z,101141.25
2022-10-31T14:35:28.827Z,101145.78
2022-10-31T14:38:08.915Z,101148.25
2022-10-31T14:41:28.096Z,101145.84
2022-10-31T14:44:00.376Z,101152.44
2022-10-31T14:46:37.512Z,101152.38
2022-10-31T14:49:29.046Z,101155.06
2022-10-31T14:51:56.786Z,101161.97
2022-10-31T14:54:33.529Z,101161.47
2022-10-31T14:57:13.865Z,101167.59
2022-10-31T14:59:46.265Z,101169.91
2022-10-31T15:02:18.974Z,101170.19
2022-10-31T15:04:48.744Z,101169.91
2022-10-31T15:07:27.261Z,101183.03
2022-10-31T15:10:01.388Z,101181.84
2022-10-31T15:12:31.269Z,101179.94
2022-10-31T15:14:59.867Z,101176.91
2022-10-31T15:17:27.434Z,101183.69
2022-10-31T15:19:54.711Z,101179.72
2022-10-31T15:22:25.098Z,101177.03
2022-10-31T15:24:57.486Z,101180.44
2022-10-31T15:27:25.825Z,101179.25
2022-10-31T15:29:55.953Z,101189.84
2022-10-31T15:32:25.591Z,101185.38
2022-10-31T15:34:54.132Z,101196.66
2022-10-31T15:37:23.411Z,101194.31
2022-10-31T15:39:50.663Z,101203.00
2022-10-31T15:42:35.216Z,101209.41
2022-10-31T15:45:13.980Z,101206.63
2022-10-31T15:47:50.365Z,101209.28
2022-10-31T15:50:51.498Z,101218.16
2022-10-31T15:53:22.495Z,101215.13
2022-10-31T15:55:57.045Z,101224.28
2022-10-31T15:58:25.707Z,101226.66
2022-10-31T16:01:19.882Z,101221.66
2022-10-31T16:03:59.701Z,101228.63
2022-10-31T16:06:26.831Z,101225.69
2022-10-31T16:08:53.798Z,101232.88
2022-10-31T16:11:23.900Z,101234.97
2022-10-31T16:14:12.180Z,101242.34
2022-10-31T16:16:45.643Z,101238.75
2022-10-31T16:19:21.461Z,101242.47
2022-10-31T16:21:53.403Z,101249.44
2022-10-31T16:24:32.912Z,101248.31
2022-10-31T16:27:16.678Z,101249.06
2022-10-31T16:29:45.380Z,101259.66
2022-10-31T16:32:28.664Z,101260.34
2022-10-31T16:35:11.533Z,101254.69
2022-10-31T16:37:39.439Z,101263.09
2022-10-31T16:40:06.733Z,101259.56
2022-10-31T16:42:33.814Z,101259.38
2022-10-31T16:45:01.079Z,101252.41
2022-10-31T16:47:28.671Z,101260.91
2022-10-31T16:49:55.739Z,101261.19
2022-10-31T16:52:22.562Z,101258.16
2022-10-31T16:54:49.739Z,101262.13
2022-10-31T16:57:21.566Z,101267.31
2022-10-31T16:59:52.725Z,101259.88
2022-10-31T17:02:19.861Z,101263.91
2022-10-31T17:04:48.533Z,101263.16
2022-10-31T17:07:17.788Z,101259.41
2022-10-31T17:09:45.778Z,101266.66
2022-10-31T17:12:20.044Z,101266.16
2022-10-31T17:14:51.771Z,101265.91
2022-10-31T17:17:18.952Z,101262.34
2022-10-31T17:19:46.131Z,101277.59
2022-10-31T17:22:14.386Z,101271.97
2022-10-31T17:24:41.520Z,101281.38
2022-10-31T17:27:08.675Z,101277.66
2022-10-31T17:29:36.298Z,101275.91
2022-10-31T17:32:04.372Z,101278.56
2022-10-31T17:34:31.342Z,101280.97
2022-10-31T17:36:58.272Z,101288.69
2022-10-31T17:39:25.317Z,101289.41
2022-10-31T17:41:52.989Z,101293.97
2022-10-31T17:44:20.235Z,101289.66
2022-10-31T17:46:47.161Z,101291.53
2022-10-31T17:49:14.263Z,101285.91
2022-10-31T17:51:41.217Z,101287.19
2022-10-31T17:54:09.320Z,101294.84
2022-10-31T17:56:36.360Z,101292.16
2022-10-31T17:59:03.576Z,101294.03
2022-10-31T18:01:30.657Z,101297.47
2022-10-31T18:03:57.887Z,101293.44
2022-10-31T18:06:24.889Z,101294.16
2022-10-31T18:08:51.906Z,101294.53
2022-10-31T18:11:21.723Z,101296.16
2022-10-31T18:13:54.293Z,101294.53
2022-10-31T18:16:21.671Z,101301.16
2022-10-31T18:19:02.204Z,101291.97
2022-10-31T18:21:30.224Z,101308.88
2022-10-31T18:23:59.404Z,101307.13
2022-10-31T18:26:27.929Z,101310.06
2022-10-31T18:28:55.816Z,101312.16
2022-10-31T18:31:22.976Z,101314.03
2022-10-31T18:33:54.543Z,101317.13
2022-10-31T18:36:22.421Z,101320.13
2022-10-31T18:38:49.466Z,101314.06
2022-10-31T18:41:16.755Z,101311.72
2022-10-31T18:43:44.026Z,101316.34
2022-10-31T18:46:14.472Z,101318.78
2022-10-31T18:48:43.232Z,101319.50
2022-10-31T18:51:13.488Z,101325.16
2022-10-31T18:53:40.947Z,101326.75
2022-10-31T18:56:09.645Z,101324.84
2022-10-31T18:58:37.244Z,101334.91
2022-10-31T19:01:08.885Z,101328.44
2022-10-31T19:03:36.321Z,101335.34
2022-10-31T19:06:03.663Z,101334.00
2022-10-31T19:08:30.984Z,101335.19
2022-10-31T19:11:18.249Z,101334.84
2022-10-31T19:13:45.366Z,101344.84
2022-10-31T19:16:14.788Z,101349.59
2022-10-31T19:18:42.948Z,101349.00
2022-10-31T19:21:18.215Z,101346.03
2022-10-31T19:23:46.721Z,101351.16
2022-10-31T19:26:14.457Z,101350.09
2022-10-31T19:28:42.141Z,101342.91
2022-10-31T19:31:10.626Z,101359.72
2022-10-31T19:33:37.700Z,101360.06
2022-10-31T19:36:10.888Z,101357.06
2022-10-31T19:38:40.019Z,101359.47
2022-10-31T19:41:11.632Z,101358.97
2022-10-31T19:43:38.642Z,101364.38
2022-10-31T19:46:07.070Z,101371.53
2022-10-31T19:48:37.367Z,101362.91
2022-10-31T19:51:07.199Z,101363.59
2022-10-31T19:53:34.938Z,101368.59
2022-10-31T19:56:02.123Z,101370.25
2022-10-31T19:58:29.542Z,101378.22
2022-10-31T20:00:56.547Z,101378.13
2022-10-31T20:03:23.738Z,101372.63
2022-10-31T20:05:51.053Z,101367.84
2022-10-31T20:08:20.271Z,101379.09
2022-10-31T20:11:16.867Z,101381.94
2022-10-31T20:13:44.740Z,101386.66
2022-10-31T20:16:13.414Z,101386.94
2022-10-31T20:18:40.955Z,101391.97
2022-10-31T20:21:11.183Z,101392.47
2022-10-31T20:23:39.306Z,101392.97
2022-10-31T20:26:08.651Z,101401.19
2022-10-31T20:28:39.956Z,101402.75
2022-10-31T20:31:12.936Z,101398.94
2022-10-31T20:33:40.409Z,101405.00
2022-10-31T20:36:08.687Z,101408.09
2022-10-31T20:38:40.514Z,101406.06
2022-10-31T20:41:09.778Z,101403.38
2022-10-31T20:43:36.862Z,101407.66
2022-10-31T20:46:21.675Z,101411.06
2022-10-31T20:48:49.164Z,101405.91
2022-10-31T20:51:21.128Z,101394.47
2022-10-31T20:53:51.790Z,101408.38
2022-10-31T20:56:20.889Z,101402.78
2022-10-31T20:58:49.016Z,101400.19
2022-10-31T21:01:17.651Z,101406.53
2022-10-31T21:03:45.842Z,101409.75
2022-10-31T21:06:13.967Z,101413.38
2022-10-31T21:08:41.798Z,101407.94
2022-10-31T21:11:11.406Z,101400.91
2022-10-31T21:13:40.922Z,101406.19
2022-10-31T21:16:13.457Z,101405.78
2022-10-31T21:18:42.057Z,101407.72
2022-10-31T21:21:15.915Z,101416.31
2022-10-31T21:23:44.104Z,101409.28
2022-10-31T21:26:21.176Z,101408.41
2022-10-31T21:28:49.700Z,101414.38
2022-10-31T21:31:17.915Z,101420.41
2022-10-31T21:33:46.363Z,101409.34
2022-10-31T21:36:14.125Z,101411.97
2022-10-31T21:38:41.632Z,101410.75
2022-10-31T21:41:11.170Z,101405.53
2022-10-31T21:43:39.648Z,101399.09
2022-10-31T21:46:12.094Z,101402.78
2022-10-31T21:48:42.281Z,101412.47
2022-10-31T21:51:15.038Z,101403.00
2022-10-31T21:54:00.658Z,101413.31
2022-10-31T21:56:28.401Z,101410.00
2022-10-31T21:58:55.950Z,101411.66
2022-10-31T22:01:24.831Z,101415.56
2022-10-31T22:03:52.277Z,101420.97
2022-10-31T22:06:19.150Z,101416.38
2022-10-31T22:08:46.467Z,101408.31
2022-10-31T22:11:15.712Z,101412.44
2022-10-31T22:13:44.956Z,101410.72
2022-10-31T22:16:23.378Z,101416.31
2022-10-31T22:18:55.895Z,101418.81
2022-10-31T22:21:26.371Z,101422.22
2022-10-31T22:23:55.467Z,101419.13
2022-10-31T22:26:22.846Z,101421.47
2022-10-31T22:29:02.475Z,101420.78
2022-10-31T22:31:31.810Z,101422.19
2022-10-31T22:33:59.363Z,101415.91
2022-10-31T22:36:30.775Z,101420.97
2022-10-31T22:38:58.837Z,101417.28
2022-10-31T22:41:30.780Z,101426.28
2022-10-31T22:43:58.455Z,101421.78
2022-10-31T22:46:30.498Z,101425.16
2022-10-31T22:49:00.586Z,101426.44
2022-10-31T22:51:33.701Z,101419.47
2022-10-31T22:54:01.250Z,101419.28
2022-10-31T22:56:31.109Z,101418.28
2022-10-31T22:58:59.171Z,101413.66
2022-10-31T23:01:28.691Z,101415.38
2022-10-31T23:03:56.122Z,101410.94
2022-10-31T23:06:25.887Z,101409.72
2022-10-31T23:08:53.403Z,101412.44
2022-10-31T23:11:33.832Z,101422.13
2022-10-31T23:14:15.951Z,101409.19
2022-10-31T23:16:47.509Z,101411.91
2022-10-31T23:19:19.563Z,101418.34
2022-10-31T23:21:55.069Z,101427.09
2022-10-31T23:24:42.842Z,101419.81
2022-10-31T23:27:12.746Z,101422.06
2022-10-31T23:29:47.075Z,101428.97
2022-10-31T23:32:27.210Z,101423.97
2022-10-31T23:34:56.588Z,101428.91
2022-10-31T23:37:25.884Z,101422.28
2022-10-31T23:39:53.706Z,101420.06
2022-10-31T23:42:20.999Z,101420.09
2022-10-31T23:44:48.380Z,101417.56
2022-10-31T23:47:16.120Z,101419.69
2022-10-31T23:49:43.496Z,101427.06
2022-10-31T23:52:11.253Z,101423.66
2022-10-31T23:54:38.477Z,101426.34
2022-10-31T23:57:06.067Z,101425.53
2022-10-31T23:59:33.451Z,101424.63
